Harford, Pennsylvania
Current Conditions -  °F | °C
As of 10:54 PM on Sunday 23 Nov 2014 (Local Time) from KAVP Reporting Station
Overcast Overcast  
Wind Chill: 52°   Ceiling: 3600
Heat Index: 52°   Visibility: 10mi
Dew Point: 40°   Wind: 12mph
Humidity: 63%   Direction: 190°S
Pressure: 29.93"   Gusts: NA
Location:  41.78°N, 75.7°W
Report Text: KAVP 240354Z 19010KT 10SM OVC036 11/04 A2993 RMK AO2 SLP134 T01110044
Loading
Personal Weather Stations






























Interactive Weather Map New forecast layout! Learn more

10-Day Weather Forecast

Advertisements
Track Severe Weather on mobile